Bad River Indian Reservation, Wisconsin
Current Conditions -  °F | °C
As of 9:53 AM on Thursday 30 Oct 2014 (Local Time) from KASX Reporting Station
Overcast Overcast  
Wind Chill:   Ceiling: 1900
Heat Index:   Visibility: 10mi
Dew Point:   Wind: 6mph
Humidity: 79%   Direction: 250°WSW
Pressure: 30.08"   Gusts: NA
Location:  46.543°N, 90.8706°W
Report Text: KASX 301453Z AUTO 25005KT 10SM OVC019 04/01 A3008 RMK AO2 SLP195 T00390006 53007
Loading
Personal Weather Stations






























Interactive Weather Map
Tropical Storm Tracking
New forecast layout! Learn more

10-Day Weather Forecast

Advertisements
Track Severe Weather on mobile